Pagina principale
METAR-TAF:

METAR-TAF

Aeroporti :

Aeroporto di Crotone

Crotone, Italia

latitudine: 39-00N, longitudine: 017-04E, altezza: 155 m

Osservazione

Il bollettino è stato emesso 1 ora e 12 minuti fa, alle 12:50 UTC
Vento 6 kt da est/sud-est
Temperature 32°C
Umidità 36%
Pressione 1017 hPa
Visibilità 10 km o più
nessuna nube inferiore a 1500 m e nessun cumulonembo

METAR: LIBC 211250Z 12006KT CAVOK 32/15 Q1017

Ora: 16:02 (14:02 UTC)

Previsione

Il bollettino è stato emesso 3 ore e 2 minuti fa, alle 11:00 UTC
Previsione valida dal 21 alle 12 UTC al 22 alle 12 UTC
Vento 10 kt da sud
Visibilità 10 km o più
nessuna nube inferiore a 1500 m e nessun cumulonembo
Evoluzione graduale
dal 21 alle 17 UTC al 21 alle 19 UTC
Vento 4 kt da direzioni variabili
Evoluzione graduale
dal 22 alle 09 UTC al 22 alle 11 UTC
Vento 10 kt da nord-est

TAF: LIBC 211100Z 2112/2212 17010KT CAVOK BECMG 2117/2119 VRB04KT BECMG 2209/2211 05010KT

Osservazioni e previsioni meteorologiche di più di 4000 aeroporti (messaggi METAR e TAF).

Le stazioni disponibili sono rappresentate dai dischi gialli e rossi sulla carta.

Puntare il mouse per vedere il nome della stazione.

Clicca sopra per visualizzare le osservazioni e previsioni meteorologiche.

Per cambiare la mappa : fare clic sui pulsanti verdi con una croce nera per ingrandire, il pulsante verde con un trattino per diminuire, o sulla freccia verde per le mappe adiacenti.


METAR-TAF: